Tropical Cyclones
[Index]
Main Index Home Page Stock Weather Photos Extreme Storms Discussion Storm News and Storm Chasing Reports Tropical Cyclones / Hurricanes / Typhoons Weather Data and Links Wild Fires / Bushfires Weather Observation Techniques Weather Picture Catalogue Tornado Pictures and Reports Stock Video Footage and DVDs for sale
Season 1973-1974 Tropical Cyclone ZOE Track Map
Season 1973-1974 Summaries: [BoM-AU] [JTWC-AU] [JTWC-SIO] [JTWC-SPAC] [JTWC-SH]
<<- Previous TC | BoM 1973-1974 Season | Next TC ->>

click for intensity scale information  Lat/long Grid: Show Hide

 Date Labels: Show Hide

Bureau of Meteorology Tropical Cyclone Data

Name: ZOE
Number: 525 / 197374_15

06 Mar 1974 08:00 UTC to 14 Mar 1974 05:00 UTC

    date/time    lat    long    hPa   cat  kts
1974-03-06 08   18.9   154.5    991    1                
1974-03-06 11   19.0   154.7    990    1                
1974-03-06 23   19.8   155.7    984    2                
1974-03-07 11   20.8   156.4    980    2                
1974-03-07 17   21.0   156.5    978    2                
1974-03-07 23   21.2   156.4    976    2                
1974-03-08 11   21.4   156.3    971    2                
1974-03-08 23   21.5   156.1    968    3                
1974-03-09 11   21.6   155.9    968    3                
1974-03-09 23   21.7   155.6    974    2                
1974-03-10 11   22.0   155.0    978    2                
1974-03-10 17   22.4   154.6    981    2                
1974-03-10 23   22.8   154.4    982    2                
1974-03-11 11   24.3   154.4    982    2                
1974-03-11 14   24.8   154.4    982    2                
1974-03-11 17   25.3   154.2    982    2                
1974-03-11 23   26.1   153.5    982    2                
1974-03-12 02   26.4   153.4    982    2                
1974-03-12 05   26.7   153.4    982    2                
1974-03-12 11   27.2   153.7    983    2                
1974-03-12 14   27.6   153.8    983    2                
1974-03-12 18   28.1   153.5    984    2                
1974-03-12 23   28.8   153.4    986    1                
1974-03-13 00   28.9   153.5    986    1                
1974-03-13 11   30.2   154.8    992    1                
1974-03-13 17   31.1   155.9    994    1                
1974-03-13 23   31.6   157.4    995    1                
1974-03-14 05   32.0   158.8    997                     
Winds are 10-min average.

Tropical cyclone tracks developed by Michael Bath using data from the Bureau of Meteorology and Google Maps.


[Australian Severe Weather index] [Copyright Notice] [Email Contacts] [Search This Site] [Privacy Policy]
Document: tropical_cyclone_zoe.htm Updated: 30 May 2013